Time;durP1;ratioP1;P1;durP2;ratioP2;P2;SDS_P1;SDS_P2;PMS_P1;PMS_P2;Temp;Humidity;BMP_temperature;BMP_pressure;BME280_temperature;BME280_humidity;BME280_pressure;Samples;Min_cycle;Max_cycle;Signal;HPM_P1;HPM_P2
2022/10/22 00:01:48;;;;;;;4.47;3.63;;;13.90;99.90;;;;;;5033062;28;20025;-64
2022/10/22 00:04:13;;;;;;;5.65;3.67;;;13.90;99.90;;;;;;5029539;28;20021;-64
2022/10/22 00:06:39;;;;;;;7.47;3.97;;;13.90;99.90;;;;;;5032808;28;20025;-64
2022/10/22 00:09:05;;;;;;;7.10;4.07;;;13.90;99.90;;;;;;5032338;28;20021;-64
2022/10/22 00:11:31;;;;;;;6.60;4.50;;;13.90;99.90;;;;;;5047266;28;20065;-64
2022/10/22 00:13:57;;;;;;;6.53;3.88;;;13.90;99.90;;;;;;5032850;28;20049;-64
2022/10/22 00:16:22;;;;;;;6.80;4.28;;;13.90;99.90;;;;;;5031941;28;20048;-64
2022/10/22 00:18:56;;;;;;;9.10;4.43;;;13.80;99.90;;;;;;5032936;28;20127;-64
2022/10/22 00:21:22;;;;;;;8.25;4.85;;;13.90;99.90;;;;;;5012854;28;20176;-64
2022/10/22 00:23:48;;;;;;;9.70;5.18;;;13.80;99.90;;;;;;5020228;28;20025;-64
2022/10/22 00:26:13;;;;;;;8.00;4.50;;;13.80;99.90;;;;;;5032905;28;20425;-64
2022/10/22 00:28:39;;;;;;;7.88;4.25;;;13.80;99.90;;;;;;5032450;28;20025;-64
2022/10/22 00:31:05;;;;;;;6.95;3.92;;;13.80;99.90;;;;;;5032833;28;20389;-64
2022/10/22 00:33:31;;;;;;;8.93;5.18;;;13.70;99.90;;;;;;5033014;28;20060;-64
2022/10/22 00:35:57;;;;;;;6.15;3.58;;;13.70;99.90;;;;;;5032523;28;20032;-64
2022/10/22 00:38:23;;;;;;;7.75;4.90;;;13.70;99.90;;;;;;5030627;28;20022;-64
2022/10/22 00:40:49;;;;;;;7.15;4.38;;;13.70;99.90;;;;;;5032684;28;20386;-64
2022/10/22 00:43:17;;;;;;;6.10;4.72;;;13.70;99.90;;;;;;5032360;28;20469;-64
2022/10/22 00:45:44;;;;;;;7.15;4.63;;;13.70;99.90;;;;;;5032320;28;20025;-64
2022/10/22 00:48:12;;;;;;;7.32;4.72;;;13.60;99.90;;;;;;5033087;28;20045;-64
2022/10/22 00:50:43;;;;;;;5.32;4.57;;;13.60;99.90;;;;;;5031580;28;20096;-64
2022/10/22 00:53:21;;;;;;;9.07;4.60;;;13.60;99.90;;;;;;5032373;28;20016;-64
2022/10/22 00:55:50;;;;;;;6.90;5.07;;;13.60;99.90;;;;;;5030624;28;20547;-64
2022/10/22 00:58:17;;;;;;;7.13;4.60;;;13.50;99.90;;;;;;5032012;28;20039;-64
2022/10/22 01:00:43;;;;;;;6.88;4.47;;;13.50;99.90;;;;;;5032251;28;20736;-64
2022/10/22 01:03:09;;;;;;;7.00;5.38;;;13.50;99.90;;;;;;5032085;28;20032;-64
2022/10/22 01:05:50;;;;;;;6.13;4.93;;;13.40;99.90;;;;;;5032244;28;20029;-64
2022/10/22 01:08:45;;;;;;;13.27;5.18;;;13.50;99.90;;;;;;5031224;28;20037;-64
2022/10/22 01:11:32;;;;;;;9.27;4.85;;;13.40;99.90;;;;;;5030981;28;20017;-64
2022/10/22 01:14:29;;;;;;;5.75;4.63;;;13.40;99.90;;;;;;5031444;28;20409;-64
2022/10/22 01:17:08;;;;;;;9.82;5.15;;;13.40;99.90;;;;;;5031739;28;20028;-64
2022/10/22 01:19:55;;;;;;;7.30;5.30;;;13.40;99.90;;;;;;5017259;28;20025;-64
2022/10/22 01:22:46;;;;;;;6.38;5.25;;;13.30;99.90;;;;;;5032226;28;20065;-64
2022/10/22 01:25:35;;;;;;;6.07;5.43;;;13.30;99.90;;;;;;5030459;28;20025;-64
2022/10/22 01:28:18;;;;;;;7.63;5.30;;;13.20;99.90;;;;;;5031963;28;20100;-64
2022/10/22 01:30:50;;;;;;;8.77;5.85;;;13.20;99.90;;;;;;5031448;28;20017;-64
2022/10/22 01:33:20;;;;;;;9.10;5.70;;;13.10;99.90;;;;;;5031754;28;20195;-64
2022/10/22 01:35:45;;;;;;;7.45;5.20;;;13.10;99.90;;;;;;5031637;28;20032;-64
2022/10/22 01:38:19;;;;;;;9.05;5.82;;;13.10;99.90;;;;;;5029356;28;20033;-64
2022/10/22 01:40:46;;;;;;;6.95;6.05;;;13.10;99.90;;;;;;5031280;28;20219;-64
2022/10/22 01:43:12;;;;;;;6.72;6.03;;;13.00;99.90;;;;;;5031152;28;20028;-63
2022/10/22 01:46:00;;;;;;;8.80;6.05;;;13.00;99.90;;;;;;5031121;28;20036;-64
2022/10/22 01:48:47;;;;;;;8.82;6.43;;;13.00;99.90;;;;;;5031360;28;20075;-64
2022/10/22 01:51:40;;;;;;;8.55;6.40;;;12.90;99.90;;;;;;5031114;28;20057;-64
2022/10/22 01:54:16;;;;;;;8.65;7.18;;;12.90;99.90;;;;;;5027628;28;20013;-64
2022/10/22 01:57:32;;;;;;;10.82;6.90;;;12.90;99.90;;;;;;5029874;28;20029;-64
2022/10/22 02:00:08;;;;;;;13.60;7.78;;;12.80;99.90;;;;;;4979878;28;20027;-64
2022/10/22 02:02:55;;;;;;;9.05;6.53;;;12.80;99.90;;;;;;5028744;28;20516;-64
2022/10/22 02:05:42;;;;;;;9.23;7.18;;;12.80;99.90;;;;;;5030824;28;20033;-64
2022/10/22 02:08:20;;;;;;;9.65;6.95;;;12.80;99.90;;;;;;5029444;28;20014;-64
2022/10/22 02:11:02;;;;;;;8.68;6.90;;;12.80;99.90;;;;;;5030790;28;20017;-64
2022/10/22 02:13:35;;;;;;;8.45;6.78;;;12.70;99.90;;;;;;5043294;28;20053;-64
2022/10/22 02:16:03;;;;;;;8.80;7.07;;;12.70;99.90;;;;;;5031152;28;20100;-64
2022/10/22 02:18:32;;;;;;;10.90;6.43;;;12.70;99.90;;;;;;5030719;28;20504;-64
2022/10/22 02:21:00;;;;;;;8.77;7.00;;;12.60;99.90;;;;;;5030504;28;20025;-64
2022/10/22 02:23:26;;;;;;;7.95;6.65;;;12.60;99.90;;;;;;5030761;28;20037;-64
2022/10/22 02:26:00;;;;;;;11.30;7.10;;;12.60;99.90;;;;;;5030788;28;20018;-64
2022/10/22 02:28:45;;;;;;;10.57;6.47;;;12.60;99.90;;;;;;5030982;28;20034;-64
2022/10/22 02:31:26;;;;;;;13.57;7.47;;;12.60;99.90;;;;;;5033570;28;20079;-64
2022/10/22 02:33:55;;;;;;;10.80;6.63;;;12.60;99.90;;;;;;5049471;28;20104;-64
2022/10/22 02:36:22;;;;;;;13.13;8.18;;;12.50;99.90;;;;;;5033337;28;20481;-64
2022/10/22 02:38:49;;;;;;;8.93;7.18;;;12.50;99.90;;;;;;5034667;28;20022;-64
2022/10/22 02:41:17;;;;;;;12.30;7.47;;;12.50;99.90;;;;;;5034891;28;20018;-64
2022/10/22 02:43:49;;;;;;;8.18;7.28;;;12.50;99.90;;;;;;5033753;28;20221;-63
2022/10/22 02:46:20;;;;;;;10.55;7.53;;;12.50;99.90;;;;;;5033918;28;20366;-64
2022/10/22 02:48:46;;;;;;;9.63;6.85;;;12.50;99.90;;;;;;5031409;28;20029;-64
2022/10/22 02:51:11;;;;;;;11.77;8.13;;;12.50;99.90;;;;;;5034356;28;20025;-64
2022/10/22 02:53:37;;;;;;;10.68;7.45;;;12.50;99.90;;;;;;5033127;28;20393;-64
2022/10/22 02:56:03;;;;;;;10.57;7.15;;;12.50;99.90;;;;;;5034039;28;20029;-64
2022/10/22 02:58:28;;;;;;;10.52;7.40;;;12.50;99.90;;;;;;5034533;28;20032;-64
2022/10/22 03:00:54;;;;;;;9.20;6.85;;;12.50;99.90;;;;;;5034453;28;20036;-63
2022/10/22 03:03:19;;;;;;;10.95;7.45;;;12.50;99.90;;;;;;5033321;28;20056;-64
2022/10/22 03:05:45;;;;;;;10.00;7.70;;;12.50;99.90;;;;;;5033969;28;20480;-64
2022/10/22 03:08:10;;;;;;;14.65;8.02;;;12.50;99.90;;;;;;5030660;28;20031;-64
2022/10/22 03:10:36;;;;;;;10.30;7.18;;;12.60;99.90;;;;;;5034291;28;20473;-63
2022/10/22 03:13:01;;;;;;;8.90;7.03;;;12.50;99.90;;;;;;5034016;28;20424;-63
2022/10/22 03:15:27;;;;;;;13.70;7.50;;;12.50;99.90;;;;;;5047737;28;20432;-64
2022/10/22 03:17:52;;;;;;;9.93;7.30;;;12.50;99.90;;;;;;5034179;28;20036;-64
2022/10/22 03:20:18;;;;;;;10.82;8.00;;;12.50;99.90;;;;;;5033860;28;20415;-63
2022/10/22 03:22:44;;;;;;;10.18;7.18;;;12.50;99.90;;;;;;5033906;28;20021;-64
2022/10/22 03:25:15;;;;;;;11.57;7.82;;;12.50;99.90;;;;;;5034011;28;20023;-63
2022/10/22 03:27:41;;;;;;;14.88;7.38;;;12.50;99.90;;;;;;5033674;28;20486;-64
2022/10/22 03:30:09;;;;;;;9.77;6.72;;;12.50;99.90;;;;;;5046921;28;20100;-64
2022/10/22 03:32:34;;;;;;;9.23;7.00;;;12.50;99.90;;;;;;5033841;28;20477;-64
2022/10/22 03:35:00;;;;;;;10.52;7.07;;;12.50;99.90;;;;;;5033502;28;20053;-64
2022/10/22 03:37:26;;;;;;;12.35;7.38;;;12.40;99.90;;;;;;5033655;28;20035;-64
2022/10/22 03:39:53;;;;;;;10.98;7.10;;;12.50;99.90;;;;;;5033649;28;20060;-63
2022/10/22 03:42:20;;;;;;;9.07;7.07;;;12.40;99.90;;;;;;5033458;28;20017;-64
2022/10/22 03:44:45;;;;;;;15.60;8.35;;;12.40;99.90;;;;;;5033492;28;20079;-64
2022/10/22 03:47:11;;;;;;;16.95;6.65;;;12.40;99.90;;;;;;5032216;28;20077;-63
2022/10/22 03:49:37;;;;;;;10.88;7.40;;;12.50;99.90;;;;;;5033546;28;21320;-63
2022/10/22 03:52:11;;;;;;;12.82;7.93;;;12.50;99.90;;;;;;5033499;28;20030;-63
2022/10/22 03:54:37;;;;;;;11.57;7.95;;;12.60;99.90;;;;;;5033128;28;20566;-63
2022/10/22 03:57:04;;;;;;;9.85;7.53;;;12.60;99.90;;;;;;5030328;28;20108;-64
2022/10/22 03:59:43;;;;;;;12.02;6.70;;;12.60;99.90;;;;;;5033236;28;20021;-63
2022/10/22 04:02:11;;;;;;;10.95;7.45;;;12.60;99.90;;;;;;5017440;28;20022;-63
2022/10/22 04:04:37;;;;;;;12.80;7.82;;;12.60;99.90;;;;;;5031995;28;20061;-63
2022/10/22 04:07:03;;;;;;;13.80;7.80;;;12.60;99.90;;;;;;5032898;28;20057;-64
2022/10/22 04:09:32;;;;;;;11.52;6.75;;;12.60;99.90;;;;;;5033471;28;20026;-63
2022/10/22 04:11:58;;;;;;;9.52;6.05;;;12.60;99.90;;;;;;5033052;28;20401;-63
2022/10/22 04:14:24;;;;;;;10.13;6.68;;;12.60;99.90;;;;;;5032545;28;20051;-63
2022/10/22 04:16:49;;;;;;;14.27;6.78;;;12.60;99.90;;;;;;5033127;28;20153;-63
2022/10/22 04:19:15;;;;;;;11.88;6.82;;;12.60;99.90;;;;;;5031658;28;20104;-63
2022/10/22 04:21:41;;;;;;;13.27;7.05;;;12.60;99.90;;;;;;5032778;28;20397;-63
2022/10/22 04:24:06;;;;;;;16.02;6.55;;;12.60;99.90;;;;;;5032760;28;20034;-63
2022/10/22 04:26:32;;;;;;;9.85;6.10;;;12.60;99.90;;;;;;5032814;28;20037;-64
2022/10/22 04:28:57;;;;;;;7.45;5.63;;;12.60;99.90;;;;;;5031044;28;20029;-63
2022/10/22 04:31:24;;;;;;;11.82;6.28;;;12.60;99.90;;;;;;5030082;28;20541;-64
2022/10/22 04:33:55;;;;;;;7.75;5.68;;;12.60;99.90;;;;;;5032896;28;20017;-63
2022/10/22 04:36:21;;;;;;;11.07;5.65;;;12.60;99.90;;;;;;5046500;28;20489;-63
2022/10/22 04:38:52;;;;;;;8.63;6.43;;;12.70;99.90;;;;;;5032913;28;20029;-63
2022/10/22 04:41:20;;;;;;;10.57;6.78;;;12.70;99.90;;;;;;5032477;28;20033;-63
2022/10/22 04:43:45;;;;;;;10.07;6.50;;;12.70;99.90;;;;;;5032089;28;20040;-63
2022/10/22 04:46:13;;;;;;;12.77;6.35;;;12.80;99.90;;;;;;5024719;28;20030;-63
2022/10/22 04:48:40;;;;;;;12.05;7.32;;;12.80;99.90;;;;;;5020679;28;20112;-63
2022/10/22 04:51:07;;;;;;;12.32;6.13;;;12.80;99.90;;;;;;5029374;28;20021;-63
2022/10/22 04:53:36;;;;;;;14.88;6.47;;;12.80;99.90;;;;;;5027528;28;20041;-63
2022/10/22 04:56:10;;;;;;;9.87;5.60;;;12.80;99.90;;;;;;5029526;28;20029;-63
2022/10/22 04:58:37;;;;;;;10.23;6.22;;;12.80;99.90;;;;;;5027122;28;20159;-63
2022/10/22 05:01:17;;;;;;;12.10;6.05;;;12.80;99.90;;;;;;5023572;28;20029;-63
2022/10/22 05:03:43;;;;;;;8.45;5.53;;;12.80;99.90;;;;;;5029858;28;20036;-63
2022/10/22 05:06:10;;;;;;;10.32;5.50;;;12.80;99.90;;;;;;5029629;28;20025;-63
2022/10/22 05:08:36;;;;;;;11.10;5.60;;;12.80;99.90;;;;;;5030359;28;20105;-63
2022/10/22 05:11:10;;;;;;;12.60;5.90;;;12.80;99.90;;;;;;5026800;28;20438;-63
2022/10/22 05:13:35;;;;;;;9.40;5.47;;;12.80;99.90;;;;;;5024324;28;20025;-63
2022/10/22 05:16:01;;;;;;;11.00;6.35;;;12.80;99.90;;;;;;5026560;28;20034;-63
2022/10/22 05:18:26;;;;;;;11.88;5.70;;;12.90;99.90;;;;;;5030414;28;20026;-63
2022/10/22 05:20:52;;;;;;;11.90;6.65;;;12.90;99.90;;;;;;5031866;28;20430;-63
2022/10/22 05:23:17;;;;;;;11.48;5.82;;;12.90;99.90;;;;;;5032885;28;20100;-63
2022/10/22 05:25:43;;;;;;;9.38;5.78;;;12.90;99.90;;;;;;5029048;28;20379;-63
2022/10/22 05:28:08;;;;;;;10.50;5.15;;;12.90;99.90;;;;;;5032347;28;20038;-63
2022/10/22 05:30:34;;;;;;;12.23;5.60;;;12.90;99.90;;;;;;5029958;28;20026;-63
2022/10/22 05:32:59;;;;;;;8.18;5.65;;;12.90;99.90;;;;;;5031173;28;20071;-63
2022/10/22 05:35:25;;;;;;;11.73;5.20;;;12.90;99.90;;;;;;5032123;28;20509;-63
2022/10/22 05:37:50;;;;;;;8.63;4.95;;;12.90;99.90;;;;;;5032174;28;20039;-63
2022/10/22 05:40:16;;;;;;;11.30;5.68;;;12.90;99.90;;;;;;5021666;28;20028;-63
2022/10/22 05:42:41;;;;;;;9.68;5.25;;;12.90;99.90;;;;;;5019045;28;20265;-63
2022/10/22 05:45:07;;;;;;;10.98;5.50;;;12.90;99.90;;;;;;5025496;28;20064;-64
2022/10/22 05:47:33;;;;;;;10.57;4.65;;;12.90;99.90;;;;;;5032276;28;20026;-63
2022/10/22 05:49:58;;;;;;;13.23;5.15;;;12.90;99.90;;;;;;5032700;28;20075;-63
2022/10/22 05:52:24;;;;;;;7.50;5.15;;;13.00;99.90;;;;;;5024062;28;20021;-63
2022/10/22 05:54:49;;;;;;;10.57;4.88;;;13.00;99.90;;;;;;5028337;28;20013;-63
2022/10/22 05:57:25;;;;;;;;;;;;;;;;;;;;;
2022/10/22 05:59:51;;;;;;;12.20;5.03;;;13.00;99.90;;;;;;5030127;28;20040;-63
2022/10/22 06:02:16;;;;;;;11.52;5.05;;;13.00;99.90;;;;;;5022820;28;20119;-63
2022/10/22 06:04:54;;;;;;;13.43;5.25;;;13.00;99.90;;;;;;5031415;28;20021;-63
2022/10/22 06:07:32;;;;;;;11.35;5.38;;;13.00;99.90;;;;;;5026988;28;20033;-63
2022/10/22 06:09:58;;;;;;;9.77;4.78;;;13.10;99.90;;;;;;5045682;28;20014;-63
2022/10/22 06:12:24;;;;;;;11.43;4.97;;;13.10;99.90;;;;;;5032381;28;20026;-63
2022/10/22 06:14:50;;;;;;;13.48;5.05;;;13.10;99.90;;;;;;5031258;28;20032;-63
2022/10/22 06:17:15;;;;;;;7.63;4.55;;;13.10;99.90;;;;;;5031123;28;20033;-63
2022/10/22 06:19:41;;;;;;;9.82;5.35;;;13.10;99.90;;;;;;5030514;28;20366;-63
2022/10/22 06:22:06;;;;;;;8.55;4.47;;;13.20;99.90;;;;;;5028378;28;20474;-63
2022/10/22 06:24:32;;;;;;;11.25;4.85;;;13.10;99.90;;;;;;5028208;28;20061;-63
2022/10/22 06:26:58;;;;;;;13.15;5.18;;;13.20;99.90;;;;;;5024252;28;20514;-63
2022/10/22 06:29:23;;;;;;;9.68;4.53;;;13.10;99.90;;;;;;5030992;28;20030;-63
2022/10/22 06:31:49;;;;;;;7.90;4.43;;;13.20;99.90;;;;;;5032073;28;20038;-63
2022/10/22 06:34:17;;;;;;;8.13;4.97;;;13.20;99.90;;;;;;5023353;28;20030;-63
2022/10/22 06:36:44;;;;;;;8.18;4.50;;;13.20;99.90;;;;;;5029823;28;20581;-63
2022/10/22 06:39:14;;;;;;;10.32;4.20;;;13.20;99.90;;;;;;5027925;28;20018;-63
2022/10/22 06:41:43;;;;;;;7.35;4.25;;;13.20;99.90;;;;;;5028625;28;20389;-63
2022/10/22 06:44:17;;;;;;;10.13;4.13;;;13.20;99.90;;;;;;5030477;28;20045;-63
2022/10/22 06:46:43;;;;;;;9.23;4.13;;;13.20;99.90;;;;;;5031766;28;20509;-63
2022/10/22 06:49:12;;;;;;;9.35;3.97;;;13.20;99.90;;;;;;5032314;28;20024;-63
2022/10/22 06:51:38;;;;;;;7.47;4.20;;;13.30;99.90;;;;;;5019194;28;20022;-63
2022/10/22 06:54:04;;;;;;;8.18;5.50;;;13.20;99.90;;;;;;5031854;28;20022;-63
2022/10/22 06:56:29;;;;;;;10.73;5.00;;;13.30;99.90;;;;;;5028540;28;20397;-63
2022/10/22 06:58:56;;;;;;;10.30;4.32;;;13.30;99.90;;;;;;5029859;28;20021;-63
2022/10/22 07:01:27;;;;;;;8.80;4.20;;;13.40;99.90;;;;;;5028082;28;20076;-63
2022/10/22 07:03:53;;;;;;;7.43;4.10;;;13.40;99.90;;;;;;5012432;28;20061;-63
2022/10/22 07:06:20;;;;;;;13.85;4.97;;;13.50;99.90;;;;;;5029404;28;20030;-63
2022/10/22 07:08:45;;;;;;;9.27;4.68;;;13.50;99.90;;;;;;5031531;28;20021;-63
2022/10/22 07:11:17;;;;;;;7.78;4.32;;;13.50;99.90;;;;;;5024591;28;20087;-63
2022/10/22 07:13:44;;;;;;;8.55;4.43;;;13.50;99.90;;;;;;5031022;28;20026;-63
2022/10/22 07:16:10;;;;;;;10.13;3.92;;;13.50;99.90;;;;;;5033383;28;20080;-63
2022/10/22 07:18:37;;;;;;;10.70;4.00;;;13.60;99.90;;;;;;5021993;28;20550;-63
2022/10/22 07:21:03;;;;;;;12.30;4.05;;;13.50;99.90;;;;;;5034026;28;20535;-63
2022/10/22 07:23:29;;;;;;;7.97;4.28;;;13.60;99.90;;;;;;5033981;28;20075;-63
2022/10/22 07:25:55;;;;;;;7.32;3.50;;;13.60;99.90;;;;;;5032563;28;20029;-63
2022/10/22 07:28:20;;;;;;;14.30;4.70;;;13.60;99.90;;;;;;5022122;28;20109;-63
2022/10/22 07:30:46;;;;;;;9.85;3.28;;;13.70;99.90;;;;;;5034922;28;20500;-63
2022/10/22 07:33:12;;;;;;;10.68;3.97;;;13.70;99.90;;;;;;5033865;28;20029;-63
2022/10/22 07:35:38;;;;;;;9.55;4.22;;;13.80;99.90;;;;;;5034474;28;20051;-63
2022/10/22 07:38:05;;;;;;;9.23;4.65;;;13.80;99.90;;;;;;5034580;28;20025;-63
2022/10/22 07:40:31;;;;;;;11.57;4.53;;;13.80;99.90;;;;;;5019575;28;20115;-63
2022/10/22 07:42:56;;;;;;;10.30;3.70;;;13.90;99.90;;;;;;5017614;28;20089;-63
2022/10/22 07:45:22;;;;;;;11.55;4.00;;;14.00;99.90;;;;;;5018900;28;20045;-63
2022/10/22 07:47:47;;;;;;;9.75;4.68;;;14.00;99.90;;;;;;5019211;28;20049;-63
2022/10/22 07:50:14;;;;;;;11.75;3.85;;;14.10;99.90;;;;;;5024639;28;20416;-63
2022/10/22 07:52:39;;;;;;;9.68;3.60;;;14.10;99.90;;;;;;5033113;28;20031;-63
2022/10/22 07:55:05;;;;;;;15.90;3.97;;;14.20;99.90;;;;;;5033039;28;20037;-63
2022/10/22 07:57:30;;;;;;;10.05;4.70;;;14.30;99.90;;;;;;5033329;28;20049;-63
2022/10/22 07:59:57;;;;;;;12.25;4.38;;;14.30;99.90;;;;;;5032033;28;20018;-63
2022/10/22 08:02:23;;;;;;;11.75;4.10;;;14.40;99.90;;;;;;5033499;28;20051;-63
2022/10/22 08:04:48;;;;;;;13.95;3.78;;;14.60;99.90;;;;;;5030362;28;20030;-63
2022/10/22 08:07:14;;;;;;;7.80;3.05;;;14.70;99.90;;;;;;5032074;28;20121;-64
2022/10/22 08:09:40;;;;;;;13.82;3.88;;;14.70;99.90;;;;;;5033109;28;20030;-63
2022/10/22 08:12:06;;;;;;;10.80;3.33;;;14.80;99.90;;;;;;5032977;28;20025;-63
2022/10/22 08:14:31;;;;;;;15.82;3.20;;;14.80;99.90;;;;;;5032911;28;20481;-64
2022/10/22 08:16:57;;;;;;;11.45;3.08;;;14.90;99.90;;;;;;5040309;28;20029;-64
2022/10/22 08:19:22;;;;;;;9.05;2.60;;;15.00;99.90;;;;;;5033369;28;20030;-63
2022/10/22 08:21:48;;;;;;;7.80;2.63;;;15.10;99.90;;;;;;5033128;28;20409;-63
2022/10/22 08:24:14;;;;;;;9.13;2.40;;;15.20;99.90;;;;;;5029600;28;20029;-64
2022/10/22 08:26:40;;;;;;;8.95;2.45;;;15.30;99.90;;;;;;5026994;28;20030;-64
2022/10/22 08:29:06;;;;;;;7.40;2.00;;;15.30;99.90;;;;;;5026057;28;20018;-64
2022/10/22 08:31:32;;;;;;;7.53;2.00;;;15.40;99.90;;;;;;5029274;28;20429;-64
2022/10/22 08:33:57;;;;;;;9.70;2.17;;;15.50;99.90;;;;;;5034155;28;20030;-64
2022/10/22 08:36:23;;;;;;;10.38;1.98;;;15.60;99.90;;;;;;5028564;28;20034;-64
2022/10/22 08:38:48;;;;;;;6.07;2.00;;;15.70;99.90;;;;;;5035921;28;20064;-64
2022/10/22 08:41:20;;;;;;;8.40;1.88;;;15.80;99.90;;;;;;5032212;28;20079;-64
2022/10/22 08:44:07;;;;;;;8.73;1.77;;;15.90;99.90;;;;;;5030548;28;20092;-64
2022/10/22 08:46:46;;;;;;;8.18;2.78;;;16.00;99.90;;;;;;5032397;28;20030;-64
2022/10/22 08:49:21;;;;;;;5.57;1.48;;;16.00;99.90;;;;;;5031144;28;20025;-64
2022/10/22 08:51:47;;;;;;;11.45;2.15;;;16.10;99.90;;;;;;5030743;28;20385;-64
2022/10/22 08:54:18;;;;;;;10.73;2.25;;;16.10;99.90;;;;;;5029488;28;20021;-64
2022/10/22 08:56:52;;;;;;;6.57;1.50;;;16.10;99.90;;;;;;5029569;28;20026;-64
2022/10/22 08:59:44;;;;;;;9.43;1.80;;;16.10;99.90;;;;;;5032248;28;20032;-64
2022/10/22 09:02:51;;;;;;;8.98;2.17;;;16.10;99.90;;;;;;5032164;28;20500;-64
2022/10/22 09:05:28;;;;;;;6.82;1.48;;;16.10;99.90;;;;;;5017903;28;20041;-64
2022/10/22 09:07:56;;;;;;;5.07;1.33;;;16.20;99.90;;;;;;5031979;28;20485;-64
2022/10/22 09:10:28;;;;;;;7.38;1.55;;;16.10;99.90;;;;;;5032837;28;20026;-64
2022/10/22 09:12:53;;;;;;;5.53;1.40;;;16.20;99.90;;;;;;5033443;28;20022;-64
2022/10/22 09:15:19;;;;;;;7.20;1.23;;;16.20;99.90;;;;;;5032979;28;20098;-64
2022/10/22 09:18:25;;;;;;;8.30;1.67;;;16.30;99.90;;;;;;5013567;28;20482;-64
2022/10/22 09:20:57;;;;;;;5.57;1.05;;;16.30;99.90;;;;;;5030437;28;20037;-64
2022/10/22 09:23:44;;;;;;;6.18;1.33;;;16.30;99.90;;;;;;5032366;28;20033;-64
2022/10/22 09:26:15;;;;;;;7.53;1.90;;;16.30;99.90;;;;;;5023204;28;20030;-64
2022/10/22 09:28:41;;;;;;;6.43;1.30;;;16.40;99.90;;;;;;5031205;28;20022;-64
2022/10/22 09:31:12;;;;;;;4.13;1.23;;;16.40;99.90;;;;;;5032984;28;20097;-64
2022/10/22 09:33:39;;;;;;;5.20;1.27;;;16.40;99.90;;;;;;5032093;28;20042;-64
2022/10/22 09:36:06;;;;;;;6.32;1.20;;;16.40;99.90;;;;;;5032649;28;20033;-64
2022/10/22 09:38:46;;;;;;;6.55;1.35;;;16.50;99.90;;;;;;5032451;28;20026;-64
2022/10/22 09:41:13;;;;;;;9.75;1.38;;;16.50;99.90;;;;;;5031220;28;20389;-64
2022/10/22 09:43:39;;;;;;;6.75;1.30;;;16.50;99.90;;;;;;5031847;28;20041;-64
2022/10/22 09:46:07;;;;;;;6.10;1.20;;;16.40;99.90;;;;;;5020135;28;20034;-64
2022/10/22 09:48:41;;;;;;;7.60;1.65;;;16.40;99.90;;;;;;5032288;28;20021;-64
2022/10/22 09:51:15;;;;;;;8.25;1.50;;;16.50;99.90;;;;;;5031011;28;20014;-64
2022/10/22 09:53:43;;;;;;;8.65;2.10;;;16.50;99.90;;;;;;5031275;28;20121;-64
2022/10/22 09:56:36;;;;;;;5.60;1.52;;;16.50;99.90;;;;;;5031368;28;20029;-64
2022/10/22 09:59:02;;;;;;;6.03;1.27;;;16.60;99.90;;;;;;5021468;28;20044;-64
2022/10/22 10:01:32;;;;;;;5.65;1.70;;;16.60;99.90;;;;;;5031531;28;20026;-64
2022/10/22 10:04:12;;;;;;;7.97;2.03;;;16.60;99.90;;;;;;5016660;28;20117;-64
2022/10/22 10:06:41;;;;;;;9.85;2.13;;;16.60;99.90;;;;;;5019687;28;20025;-64
2022/10/22 10:09:21;;;;;;;7.40;1.88;;;16.60;99.90;;;;;;5032117;28;20026;-64
2022/10/22 10:12:18;;;;;;;4.82;1.50;;;16.70;99.90;;;;;;5029636;28;20446;-64
2022/10/22 10:15:02;;;;;;;7.60;1.63;;;16.70;99.90;;;;;;5022662;28;20079;-64
2022/10/22 10:17:42;;;;;;;4.93;1.90;;;16.80;99.90;;;;;;5027989;28;20543;-64
2022/10/22 10:20:16;;;;;;;7.03;2.63;;;16.80;99.90;;;;;;5030605;28;20061;-64
2022/10/22 10:22:48;;;;;;;7.20;2.08;;;16.90;99.90;;;;;;5021826;28;20075;-64
2022/10/22 10:25:32;;;;;;;5.95;1.60;;;16.90;99.90;;;;;;5029502;28;20382;-64
2022/10/22 10:28:28;;;;;;;7.10;1.58;;;17.00;99.90;;;;;;5032235;28;20397;-64
2022/10/22 10:31:12;;;;;;;6.75;1.95;;;17.10;99.90;;;;;;5020205;28;20491;-64
2022/10/22 10:33:55;;;;;;;6.03;1.77;;;17.20;99.90;;;;;;5028946;28;20029;-64
2022/10/22 10:36:23;;;;;;;6.93;1.88;;;17.30;99.90;;;;;;5030143;28;20026;-64
2022/10/22 10:39:24;;;;;;;4.90;1.40;;;17.70;99.90;;;;;;5031064;28;20017;-64
2022/10/22 10:42:03;;;;;;;8.77;1.60;;;18.10;99.90;;;;;;5022780;28;20120;-64
2022/10/22 10:44:35;;;;;;;;;;;19.00;99.90;;;;;;5031035;28;20042;-64
2022/10/22 10:47:16;;;;;;;5.68;1.40;;;20.70;99.90;;;;;;5023521;28;19920;-65
2022/10/22 10:49:42;;;;;;;7.50;1.90;;;22.40;94.20;;;;;;5028487;28;20026;-65
2022/10/22 10:52:40;;;;;;;6.28;1.40;;;22.20;92.00;;;;;;5028817;28;20030;-64
2022/10/22 10:55:15;;;;;;;5.45;1.50;;;22.40;92.30;;;;;;5022048;28;20013;-64
2022/10/22 10:57:44;;;;;;;6.35;1.40;;;24.40;90.00;;;;;;5028983;28;20032;-65
2022/10/22 11:00:13;;;;;;;7.35;1.50;;;26.70;79.60;;;;;;5035730;28;20469;-64
2022/10/22 11:02:53;;;;;;;6.50;1.10;;;28.50;71.10;;;;;;5027557;28;20029;-65
2022/10/22 11:05:43;;;;;;;4.82;1.05;;;29.60;65.40;;;;;;5040561;28;20072;-64
2022/10/22 11:08:25;;;;;;;5.13;1.80;;;29.60;62.90;;;;;;5032784;28;20029;-64
2022/10/22 11:11:02;;;;;;;6.72;1.58;;;30.10;60.60;;;;;;5034378;28;20018;-65
2022/10/22 11:13:30;;;;;;;5.35;1.58;;;31.00;57.20;;;;;;5034235;28;20034;-65
2022/10/22 11:16:06;;;;;;;5.00;1.20;;;31.60;54.40;;;;;;5034281;28;20466;-65
2022/10/22 11:18:41;;;;;;;5.22;1.55;;;32.10;54.10;;;;;;5033341;28;20440;-65
2022/10/22 11:21:30;;;;;;;4.65;1.30;;;32.00;52.80;;;;;;5034092;28;20022;-65
2022/10/22 11:24:07;;;;;;;5.47;1.35;;;32.60;52.70;;;;;;5015580;28;20033;-65
2022/10/22 11:26:47;;;;;;;4.93;1.40;;;32.00;51.70;;;;;;5030471;28;20072;-65
2022/10/22 11:29:20;;;;;;;5.15;1.30;;;31.90;51.50;;;;;;5022817;28;20025;-65
2022/10/22 11:31:52;;;;;;;3.75;0.82;;;32.00;51.20;;;;;;5034381;28;20025;-65
2022/10/22 11:34:30;;;;;;;3.85;1.30;;;32.40;50.40;;;;;;5016940;28;20148;-65
2022/10/22 11:36:57;;;;;;;4.50;1.20;;;31.70;50.70;;;;;;5033829;28;20036;-65
2022/10/22 11:39:47;;;;;;;6.18;1.38;;;31.60;51.30;;;;;;5033631;28;20055;-65
2022/10/22 11:42:21;;;;;;;5.45;1.30;;;31.00;51.10;;;;;;5032403;28;20036;-65
2022/10/22 11:45:07;;;;;;;4.88;1.05;;;29.70;52.30;;;;;;5033586;28;20029;-64
2022/10/22 11:47:50;;;;;;;5.20;1.48;;;28.20;54.60;;;;;;5031398;28;20100;-65
2022/10/22 11:50:24;;;;;;;5.45;1.20;;;26.80;57.00;;;;;;5029565;28;20020;-65
2022/10/22 11:53:06;;;;;;;3.22;1.20;;;26.10;59.10;;;;;;5027398;28;20485;-64
2022/10/22 11:55:46;;;;;;;4.75;1.10;;;25.80;60.20;;;;;;5031118;28;20053;-65
2022/10/22 11:58:27;;;;;;;4.07;1.17;;;25.60;61.30;;;;;;5032254;28;20029;-64
2022/10/22 12:01:08;;;;;;;5.50;1.30;;;25.40;61.80;;;;;;5031061;28;20021;-65
2022/10/22 12:03:58;;;;;;;6.15;1.38;;;25.10;62.50;;;;;;5032437;28;20049;-65
2022/10/22 12:06:26;;;;;;;5.72;1.55;;;24.70;62.70;;;;;;5030735;28;20029;-64
2022/10/22 12:08:52;;;;;;;6.15;1.42;;;24.30;63.70;;;;;;5031614;28;20037;-64
2022/10/22 12:11:36;;;;;;;5.18;1.48;;;23.90;64.30;;;;;;5033601;28;20576;-65
2022/10/22 12:14:49;;;;;;;4.57;1.25;;;24.00;64.70;;;;;;5021260;28;20490;-65
2022/10/22 12:17:16;;;;;;;5.35;1.15;;;24.10;65.40;;;;;;5019381;28;20041;-65
2022/10/22 12:19:48;;;;;;;5.93;1.40;;;24.00;65.30;;;;;;5022148;28;20061;-65
2022/10/22 12:22:30;;;;;;;8.18;1.85;;;23.60;66.20;;;;;;5019789;28;20105;-65
2022/10/22 12:25:00;;;;;;;7.82;2.08;;;23.20;66.90;;;;;;5022251;28;20018;-65
2022/10/22 12:27:34;;;;;;;7.20;1.55;;;23.00;67.70;;;;;;5033937;28;20025;-65
2022/10/22 12:30:01;;;;;;;5.03;1.17;;;23.30;68.10;;;;;;5034353;28;20103;-65
2022/10/22 12:32:36;;;;;;;6.47;1.27;;;24.00;66.70;;;;;;5034147;28;20032;-65
2022/10/22 12:35:19;;;;;;;4.95;1.40;;;24.30;65.00;;;;;;5032757;28;20025;-65
2022/10/22 12:37:49;;;;;;;7.95;1.35;;;24.20;64.50;;;;;;5033991;28;20059;-65
2022/10/22 12:40:15;;;;;;;9.10;1.35;;;23.50;64.70;;;;;;5033693;28;20473;-65
2022/10/22 12:42:53;;;;;;;6.40;1.30;;;23.00;66.50;;;;;;5033998;28;20177;-65
2022/10/22 12:45:31;;;;;;;10.60;2.20;;;22.90;67.20;;;;;;5020810;28;20063;-65
2022/10/22 12:48:03;;;;;;;3.83;1.02;;;22.60;67.80;;;;;;5030473;28;20079;-65
2022/10/22 12:50:38;;;;;;;7.07;1.50;;;22.50;69.00;;;;;;5030441;28;20025;-65
2022/10/22 12:53:12;;;;;;;4.28;1.30;;;22.30;69.80;;;;;;5019696;28;20061;-64
2022/10/22 12:55:38;;;;;;;7.30;1.75;;;22.20;70.30;;;;;;5021722;28;20029;-65
2022/10/22 12:58:05;;;;;;;7.28;1.58;;;21.90;70.90;;;;;;5033723;28;20026;-65
2022/10/22 13:00:33;;;;;;;6.47;1.38;;;21.50;71.60;;;;;;5033322;28;20025;-64
2022/10/22 13:03:02;;;;;;;8.02;1.50;;;21.30;72.50;;;;;;5029719;28;20064;-65
2022/10/22 13:05:37;;;;;;;7.32;1.17;;;21.20;73.60;;;;;;5024996;28;20025;-64
2022/10/22 13:08:19;;;;;;;4.55;1.10;;;21.20;74.20;;;;;;5031958;28;20108;-64